sensor_id;sensor_type;location;lat;lon;timestamp;pressure;altitude;pressure_sealevel;temperature;humidity
29825;BME280;16713;52.916;12.834;2023-02-18T00:00:21;100871.06;;;6.05;66.61
29825;BME280;16713;52.916;12.834;2023-02-18T00:02:48;100866.56;;;5.92;67.08
29825;BME280;16713;52.916;12.834;2023-02-18T00:05:17;100876.81;;;5.95;67.17
29825;BME280;16713;52.916;12.834;2023-02-18T00:07:44;100869.16;;;5.80;66.83
29825;BME280;16713;52.916;12.834;2023-02-18T00:10:11;100884.84;;;5.83;67.18
29825;BME280;16713;52.916;12.834;2023-02-18T00:12:38;100886.59;;;5.87;67.67
29825;BME280;16713;52.916;12.834;2023-02-18T00:15:05;100870.72;;;5.72;68.35
29825;BME280;16713;52.916;12.834;2023-02-18T00:17:31;100890.13;;;5.88;67.13
29825;BME280;16713;52.916;12.834;2023-02-18T00:19:58;100876.66;;;5.74;68.29
29825;BME280;16713;52.916;12.834;2023-02-18T00:22:24;100891.38;;;5.73;66.97
29825;BME280;16713;52.916;12.834;2023-02-18T00:24:51;100898.75;;;5.81;67.25
29825;BME280;16713;52.916;12.834;2023-02-18T00:27:17;100896.34;;;5.80;67.63
29825;BME280;16713;52.916;12.834;2023-02-18T00:29:44;100887.72;;;5.86;68.67
29825;BME280;16713;52.916;12.834;2023-02-18T00:32:10;100889.78;;;5.64;68.74
29825;BME280;16713;52.916;12.834;2023-02-18T00:34:36;100907.06;;;5.76;67.34
29825;BME280;16713;52.916;12.834;2023-02-18T00:37:03;100893.91;;;5.61;68.73
29825;BME280;16713;52.916;12.834;2023-02-18T00:39:29;100902.91;;;5.70;68.47
29825;BME280;16713;52.916;12.834;2023-02-18T00:41:55;100903.06;;;5.65;67.66
29825;BME280;16713;52.916;12.834;2023-02-18T00:44:22;100914.09;;;5.77;68.40
29825;BME280;16713;52.916;12.834;2023-02-18T00:46:48;100911.03;;;5.62;69.29
29825;BME280;16713;52.916;12.834;2023-02-18T00:49:15;100915.56;;;5.75;68.10
29825;BME280;16713;52.916;12.834;2023-02-18T00:51:41;100926.44;;;5.75;68.47
29825;BME280;16713;52.916;12.834;2023-02-18T00:54:08;100931.28;;;5.86;68.30
29825;BME280;16713;52.916;12.834;2023-02-18T00:56:34;100931.25;;;5.78;68.49
29825;BME280;16713;52.916;12.834;2023-02-18T00:59:00;100932.53;;;5.89;68.81
29825;BME280;16713;52.916;12.834;2023-02-18T01:01:27;100925.31;;;5.76;69.68
29825;BME280;16713;52.916;12.834;2023-02-18T01:03:53;100936.22;;;5.84;69.01
29825;BME280;16713;52.916;12.834;2023-02-18T01:06:19;100929.78;;;5.80;69.11
29825;BME280;16713;52.916;12.834;2023-02-18T01:08:47;100935.09;;;5.85;69.35
29825;BME280;16713;52.916;12.834;2023-02-18T01:11:14;100935.34;;;5.58;69.20
29825;BME280;16713;52.916;12.834;2023-02-18T01:13:41;100932.13;;;5.56;70.42
29825;BME280;16713;52.916;12.834;2023-02-18T01:16:08;100933.97;;;5.78;69.84
29825;BME280;16713;52.916;12.834;2023-02-18T01:18:35;100934.13;;;5.90;69.31
29825;BME280;16713;52.916;12.834;2023-02-18T01:21:02;100935.06;;;5.68;69.72
29825;BME280;16713;52.916;12.834;2023-02-18T01:23:30;100935.03;;;5.60;70.17
29825;BME280;16713;52.916;12.834;2023-02-18T01:25:56;100932.66;;;5.67;71.18
29825;BME280;16713;52.916;12.834;2023-02-18T01:28:23;100933.47;;;5.67;70.62
29825;BME280;16713;52.916;12.834;2023-02-18T01:30:51;100936.97;;;5.68;70.72
29825;BME280;16713;52.916;12.834;2023-02-18T01:33:18;100933.09;;;5.52;70.96
29825;BME280;16713;52.916;12.834;2023-02-18T01:35:45;100934.94;;;5.34;70.40
29825;BME280;16713;52.916;12.834;2023-02-18T01:38:11;100938.97;;;5.45;71.85
29825;BME280;16713;52.916;12.834;2023-02-18T01:40:43;100922.06;;;5.18;72.01
29825;BME280;16713;52.916;12.834;2023-02-18T01:43:11;100925.47;;;5.23;72.03
29825;BME280;16713;52.916;12.834;2023-02-18T01:48:18;100931.09;;;5.27;71.92
29825;BME280;16713;52.916;12.834;2023-02-18T01:50:49;100925.28;;;5.20;72.29
29825;BME280;16713;52.916;12.834;2023-02-18T01:53:17;100933.22;;;5.08;72.07
29825;BME280;16713;52.916;12.834;2023-02-18T01:55:45;100932.09;;;5.09;72.94
29825;BME280;16713;52.916;12.834;2023-02-18T01:58:12;100929.44;;;5.17;72.31
29825;BME280;16713;52.916;12.834;2023-02-18T02:00:39;100922.50;;;5.03;72.62
29825;BME280;16713;52.916;12.834;2023-02-18T02:03:06;100922.13;;;4.96;72.91
29825;BME280;16713;52.916;12.834;2023-02-18T02:05:32;100918.38;;;5.14;73.48
29825;BME280;16713;52.916;12.834;2023-02-18T02:07:59;100918.88;;;5.16;73.13
29825;BME280;16713;52.916;12.834;2023-02-18T02:10:34;100927.44;;;5.01;73.17
29825;BME280;16713;52.916;12.834;2023-02-18T02:15:50;100914.69;;;5.10;72.22
29825;BME280;16713;52.916;12.834;2023-02-18T02:25:47;100906.31;;;4.98;73.53
29825;BME280;16713;52.916;12.834;2023-02-18T02:28:35;100905.78;;;4.87;73.17
29825;BME280;16713;52.916;12.834;2023-02-18T02:31:32;100910.00;;;4.71;73.35
29825;BME280;16713;52.916;12.834;2023-02-18T02:37:09;100918.06;;;4.84;73.58
29825;BME280;16713;52.916;12.834;2023-02-18T02:42:48;100914.34;;;4.50;74.87
29825;BME280;16713;52.916;12.834;2023-02-18T02:50:13;100916.63;;;4.56;74.14
29825;BME280;16713;52.916;12.834;2023-02-18T02:52:43;100917.22;;;4.75;74.97
29825;BME280;16713;52.916;12.834;2023-02-18T02:55:11;100914.03;;;4.51;74.75
29825;BME280;16713;52.916;12.834;2023-02-18T03:00:05;100910.75;;;4.63;74.27
29825;BME280;16713;52.916;12.834;2023-02-18T03:06:04;100905.78;;;4.65;74.63
29825;BME280;16713;52.916;12.834;2023-02-18T03:08:29;100918.59;;;4.64;74.17
29825;BME280;16713;52.916;12.834;2023-02-18T03:18:45;100913.47;;;4.63;74.28
29825;BME280;16713;52.916;12.834;2023-02-18T03:21:15;100910.25;;;4.61;74.18
29825;BME280;16713;52.916;12.834;2023-02-18T03:23:53;100900.03;;;4.58;74.09
29825;BME280;16713;52.916;12.834;2023-02-18T03:26:21;100917.38;;;4.48;74.36
29825;BME280;16713;52.916;12.834;2023-02-18T03:28:50;100906.34;;;4.53;74.14
29825;BME280;16713;52.916;12.834;2023-02-18T03:31:18;100913.25;;;4.81;74.40
29825;BME280;16713;52.916;12.834;2023-02-18T03:33:51;100905.38;;;4.71;73.98
29825;BME280;16713;52.916;12.834;2023-02-18T03:36:20;100901.50;;;4.64;73.79
29825;BME280;16713;52.916;12.834;2023-02-18T03:38:50;100909.81;;;4.67;73.65
29825;BME280;16713;52.916;12.834;2023-02-18T03:41:19;100900.50;;;4.60;73.93
29825;BME280;16713;52.916;12.834;2023-02-18T03:43:49;100912.94;;;4.83;73.63
29825;BME280;16713;52.916;12.834;2023-02-18T03:46:16;100910.00;;;4.71;73.84
29825;BME280;16713;52.916;12.834;2023-02-18T03:48:43;100922.03;;;4.78;73.93
29825;BME280;16713;52.916;12.834;2023-02-18T03:51:09;100913.50;;;4.71;74.67
29825;BME280;16713;52.916;12.834;2023-02-18T03:53:36;100915.78;;;4.78;73.51
29825;BME280;16713;52.916;12.834;2023-02-18T03:56:02;100899.28;;;4.66;73.67
29825;BME280;16713;52.916;12.834;2023-02-18T03:58:28;100907.28;;;4.71;74.61
29825;BME280;16713;52.916;12.834;2023-02-18T04:00:55;100893.53;;;4.67;74.16
29825;BME280;16713;52.916;12.834;2023-02-18T04:03:21;100902.16;;;4.47;74.37
29825;BME280;16713;52.916;12.834;2023-02-18T04:05:47;100903.09;;;4.43;74.67
29825;BME280;16713;52.916;12.834;2023-02-18T04:08:14;100904.13;;;4.77;74.60
29825;BME280;16713;52.916;12.834;2023-02-18T04:10:40;100902.78;;;4.66;73.93
29825;BME280;16713;52.916;12.834;2023-02-18T04:13:07;100893.88;;;4.74;74.24
29825;BME280;16713;52.916;12.834;2023-02-18T04:15:33;100894.00;;;4.69;74.16
29825;BME280;16713;52.916;12.834;2023-02-18T04:18:00;100892.34;;;4.60;74.80
29825;BME280;16713;52.916;12.834;2023-02-18T04:20:26;100898.97;;;4.67;74.31
29825;BME280;16713;52.916;12.834;2023-02-18T04:22:53;100897.97;;;4.63;74.29
29825;BME280;16713;52.916;12.834;2023-02-18T04:25:19;100899.03;;;4.54;74.67
29825;BME280;16713;52.916;12.834;2023-02-18T04:27:45;100897.34;;;4.44;74.87
29825;BME280;16713;52.916;12.834;2023-02-18T04:30:12;100897.03;;;4.68;74.21
29825;BME280;16713;52.916;12.834;2023-02-18T04:32:38;100901.13;;;4.57;74.62
29825;BME280;16713;52.916;12.834;2023-02-18T04:35:05;100897.22;;;4.71;73.86
29825;BME280;16713;52.916;12.834;2023-02-18T04:37:31;100882.06;;;4.48;74.57
29825;BME280;16713;52.916;12.834;2023-02-18T04:39:58;100897.34;;;4.44;74.18
29825;BME280;16713;52.916;12.834;2023-02-18T04:42:24;100886.25;;;4.54;74.70
29825;BME280;16713;52.916;12.834;2023-02-18T04:44:50;100894.53;;;4.49;74.60
29825;BME280;16713;52.916;12.834;2023-02-18T04:47:17;100891.69;;;4.41;75.01
29825;BME280;16713;52.916;12.834;2023-02-18T04:49:43;100898.94;;;4.45;75.10
29825;BME280;16713;52.916;12.834;2023-02-18T04:52:09;100887.31;;;4.45;74.74
29825;BME280;16713;52.916;12.834;2023-02-18T04:54:36;100899.75;;;4.68;73.37
29825;BME280;16713;52.916;12.834;2023-02-18T04:57:02;100897.63;;;4.56;74.63
29825;BME280;16713;52.916;12.834;2023-02-18T04:59:28;100893.09;;;4.52;73.60
29825;BME280;16713;52.916;12.834;2023-02-18T05:01:55;100890.34;;;4.43;74.28
29825;BME280;16713;52.916;12.834;2023-02-18T05:04:21;100896.38;;;4.62;74.24
29825;BME280;16713;52.916;12.834;2023-02-18T05:06:47;100890.53;;;4.33;73.96
29825;BME280;16713;52.916;12.834;2023-02-18T05:09:14;100894.84;;;4.48;74.44
29825;BME280;16713;52.916;12.834;2023-02-18T05:11:40;100901.41;;;4.55;74.10
29825;BME280;16713;52.916;12.834;2023-02-18T05:14:07;100900.69;;;4.63;73.18
29825;BME280;16713;52.916;12.834;2023-02-18T05:16:33;100891.59;;;4.68;73.19
29825;BME280;16713;52.916;12.834;2023-02-18T05:18:59;100888.72;;;4.64;72.97
29825;BME280;16713;52.916;12.834;2023-02-18T05:21:26;100885.88;;;4.47;73.95
29825;BME280;16713;52.916;12.834;2023-02-18T05:23:52;100883.78;;;4.44;73.92
29825;BME280;16713;52.916;12.834;2023-02-18T05:26:19;100889.38;;;4.70;73.34
29825;BME280;16713;52.916;12.834;2023-02-18T05:28:45;100887.78;;;4.69;73.13
29825;BME280;16713;52.916;12.834;2023-02-18T05:31:11;100882.34;;;4.69;72.71
29825;BME280;16713;52.916;12.834;2023-02-18T05:33:38;100877.09;;;4.72;72.95
29825;BME280;16713;52.916;12.834;2023-02-18T05:36:04;100877.44;;;4.79;73.17
29825;BME280;16713;52.916;12.834;2023-02-18T05:38:31;100884.97;;;4.82;72.24
29825;BME280;16713;52.916;12.834;2023-02-18T05:40:57;100881.34;;;4.87;72.80
29825;BME280;16713;52.916;12.834;2023-02-18T05:43:23;100879.38;;;4.79;72.83
29825;BME280;16713;52.916;12.834;2023-02-18T05:45:50;100885.75;;;5.14;71.39
29825;BME280;16713;52.916;12.834;2023-02-18T05:48:16;100891.97;;;5.06;71.40
29825;BME280;16713;52.916;12.834;2023-02-18T05:50:43;100875.78;;;5.01;71.91
29825;BME280;16713;52.916;12.834;2023-02-18T05:53:09;100884.94;;;5.05;71.53
29825;BME280;16713;52.916;12.834;2023-02-18T05:55:35;100875.94;;;4.96;72.31
29825;BME280;16713;52.916;12.834;2023-02-18T05:58:04;100868.09;;;4.94;71.51
29825;BME280;16713;52.916;12.834;2023-02-18T06:00:31;100875.84;;;5.09;71.34
29825;BME280;16713;52.916;12.834;2023-02-18T06:02:57;100879.00;;;5.03;71.76
29825;BME280;16713;52.916;12.834;2023-02-18T06:05:24;100874.88;;;5.14;71.72
29825;BME280;16713;52.916;12.834;2023-02-18T06:07:50;100885.63;;;5.19;71.20
29825;BME280;16713;52.916;12.834;2023-02-18T06:10:17;100878.25;;;5.11;71.63
29825;BME280;16713;52.916;12.834;2023-02-18T06:12:43;100883.69;;;5.11;70.84
29825;BME280;16713;52.916;12.834;2023-02-18T06:15:09;100869.59;;;5.09;71.80
29825;BME280;16713;52.916;12.834;2023-02-18T06:17:36;100871.63;;;4.95;71.89
29825;BME280;16713;52.916;12.834;2023-02-18T06:20:02;100868.91;;;4.95;71.23
29825;BME280;16713;52.916;12.834;2023-02-18T06:22:28;100863.31;;;5.00;72.16
29825;BME280;16713;52.916;12.834;2023-02-18T06:24:55;100863.72;;;4.84;72.58
29825;BME280;16713;52.916;12.834;2023-02-18T06:27:21;100864.41;;;4.90;71.60
29825;BME280;16713;52.916;12.834;2023-02-18T06:29:47;100869.78;;;5.12;71.42
29825;BME280;16713;52.916;12.834;2023-02-18T06:32:14;100870.72;;;5.08;71.27
29825;BME280;16713;52.916;12.834;2023-02-18T06:34:40;100872.13;;;5.05;71.44
29825;BME280;16713;52.916;12.834;2023-02-18T06:37:07;100867.44;;;4.97;71.54
29825;BME280;16713;52.916;12.834;2023-02-18T06:39:33;100882.53;;;5.12;70.81
29825;BME280;16713;52.916;12.834;2023-02-18T06:41:59;100889.56;;;5.04;71.31
29825;BME280;16713;52.916;12.834;2023-02-18T06:44:26;100883.50;;;5.07;70.95
29825;BME280;16713;52.916;12.834;2023-02-18T06:46:52;100881.00;;;5.28;70.71
29825;BME280;16713;52.916;12.834;2023-02-18T06:49:18;100874.31;;;5.25;70.90
29825;BME280;16713;52.916;12.834;2023-02-18T06:51:45;100869.31;;;5.19;70.34
29825;BME280;16713;52.916;12.834;2023-02-18T06:54:11;100879.75;;;5.34;70.41
29825;BME280;16713;52.916;12.834;2023-02-18T06:56:37;100880.31;;;5.14;71.00
29825;BME280;16713;52.916;12.834;2023-02-18T06:59:04;100878.94;;;5.25;70.60
29825;BME280;16713;52.916;12.834;2023-02-18T07:01:30;100874.31;;;5.25;71.47
29825;BME280;16713;52.916;12.834;2023-02-18T07:03:56;100872.69;;;5.24;71.05
29825;BME280;16713;52.916;12.834;2023-02-18T07:06:23;100876.56;;;5.32;70.77
29825;BME280;16713;52.916;12.834;2023-02-18T07:08:49;100878.66;;;5.35;70.52
29825;BME280;16713;52.916;12.834;2023-02-18T07:11:16;100881.88;;;5.45;70.72
29825;BME280;16713;52.916;12.834;2023-02-18T07:13:42;100877.06;;;5.42;70.09
29825;BME280;16713;52.916;12.834;2023-02-18T07:16:08;100879.84;;;5.59;70.37
29825;BME280;16713;52.916;12.834;2023-02-18T07:18:35;100888.66;;;5.73;68.84
29825;BME280;16713;52.916;12.834;2023-02-18T07:21:02;100871.69;;;5.76;69.90
29825;BME280;16713;52.916;12.834;2023-02-18T07:23:28;100859.97;;;5.50;69.72
29825;BME280;16713;52.916;12.834;2023-02-18T07:26:07;100868.44;;;5.49;69.33
29825;BME280;16713;52.916;12.834;2023-02-18T07:28:34;100867.69;;;5.65;69.92
29825;BME280;16713;52.916;12.834;2023-02-18T07:31:01;100863.84;;;5.75;70.30
29825;BME280;16713;52.916;12.834;2023-02-18T07:33:27;100872.97;;;5.79;70.39
29825;BME280;16713;52.916;12.834;2023-02-18T07:35:54;100865.59;;;5.71;69.54
29825;BME280;16713;52.916;12.834;2023-02-18T07:38:21;100861.13;;;5.75;69.41
29825;BME280;16713;52.916;12.834;2023-02-18T07:40:47;100860.16;;;5.71;69.62
29825;BME280;16713;52.916;12.834;2023-02-18T07:43:14;100858.91;;;5.77;69.41
29825;BME280;16713;52.916;12.834;2023-02-18T07:45:40;100861.78;;;5.97;68.95
29825;BME280;16713;52.916;12.834;2023-02-18T07:48:07;100862.28;;;5.91;69.78
29825;BME280;16713;52.916;12.834;2023-02-18T07:50:33;100843.69;;;5.84;69.51
29825;BME280;16713;52.916;12.834;2023-02-18T07:53:03;100836.50;;;5.80;69.16
29825;BME280;16713;52.916;12.834;2023-02-18T07:55:29;100830.72;;;5.90;69.61
29825;BME280;16713;52.916;12.834;2023-02-18T07:58:21;100827.34;;;6.01;69.39
29825;BME280;16713;52.916;12.834;2023-02-18T08:00:48;100825.59;;;6.05;69.35
29825;BME280;16713;52.916;12.834;2023-02-18T08:03:18;100820.31;;;6.00;70.05
29825;BME280;16713;52.916;12.834;2023-02-18T08:05:46;100828.63;;;5.87;69.81
29825;BME280;16713;52.916;12.834;2023-02-18T08:08:13;100824.31;;;6.03;70.46
29825;BME280;16713;52.916;12.834;2023-02-18T08:10:40;100811.00;;;6.01;70.05
29825;BME280;16713;52.916;12.834;2023-02-18T08:13:07;100806.06;;;6.03;71.06
29825;BME280;16713;52.916;12.834;2023-02-18T08:15:34;100793.75;;;5.97;70.99
29825;BME280;16713;52.916;12.834;2023-02-18T08:18:00;100797.72;;;6.17;71.63
29825;BME280;16713;52.916;12.834;2023-02-18T08:20:27;100798.66;;;6.21;71.91
29825;BME280;16713;52.916;12.834;2023-02-18T08:22:56;100777.22;;;6.11;71.50
29825;BME280;16713;52.916;12.834;2023-02-18T08:25:22;100781.53;;;6.38;71.60
29825;BME280;16713;52.916;12.834;2023-02-18T08:27:54;100787.47;;;6.31;71.24
29825;BME280;16713;52.916;12.834;2023-02-18T08:30:21;100772.25;;;6.04;73.28
29825;BME280;16713;52.916;12.834;2023-02-18T08:32:47;100783.47;;;6.20;73.55
29825;BME280;16713;52.916;12.834;2023-02-18T08:35:14;100773.38;;;5.95;74.56
29825;BME280;16713;52.916;12.834;2023-02-18T08:37:40;100778.19;;;6.15;74.09
29825;BME280;16713;52.916;12.834;2023-02-18T08:40:19;100771.75;;;6.11;74.81
29825;BME280;16713;52.916;12.834;2023-02-18T08:42:46;100777.19;;;6.19;75.01
29825;BME280;16713;52.916;12.834;2023-02-18T08:45:12;100789.88;;;6.07;76.18
29825;BME280;16713;52.916;12.834;2023-02-18T08:47:38;100769.06;;;6.02;75.09
29825;BME280;16713;52.916;12.834;2023-02-18T08:50:26;100778.81;;;6.29;76.45
29825;BME280;16713;52.916;12.834;2023-02-18T08:52:53;100771.13;;;6.31;75.66
29825;BME280;16713;52.916;12.834;2023-02-18T08:55:19;100762.28;;;6.25;75.78
29825;BME280;16713;52.916;12.834;2023-02-18T08:57:46;100758.63;;;6.13;76.72
29825;BME280;16713;52.916;12.834;2023-02-18T09:00:14;100752.25;;;6.00;77.48
29825;BME280;16713;52.916;12.834;2023-02-18T09:02:40;100746.75;;;6.17;77.11
29825;BME280;16713;52.916;12.834;2023-02-18T09:05:07;100732.44;;;5.83;77.66
29825;BME280;16713;52.916;12.834;2023-02-18T09:07:35;100727.09;;;6.03;78.62
29825;BME280;16713;52.916;12.834;2023-02-18T09:10:01;100739.91;;;6.11;78.84
29825;BME280;16713;52.916;12.834;2023-02-18T09:12:28;100730.28;;;6.14;78.20
29825;BME280;16713;52.916;12.834;2023-02-18T09:14:54;100710.78;;;6.03;78.57
29825;BME280;16713;52.916;12.834;2023-02-18T09:17:20;100740.34;;;6.22;78.32
29825;BME280;16713;52.916;12.834;2023-02-18T09:19:47;100724.81;;;6.14;79.15
29825;BME280;16713;52.916;12.834;2023-02-18T09:22:13;100721.19;;;6.01;79.83
29825;BME280;16713;52.916;12.834;2023-02-18T09:24:40;100702.59;;;6.03;79.74
29825;BME280;16713;52.916;12.834;2023-02-18T09:27:07;100686.53;;;6.19;79.85
29825;BME280;16713;52.916;12.834;2023-02-18T09:29:37;100678.53;;;6.22;80.32
29825;BME280;16713;52.916;12.834;2023-02-18T09:32:04;100684.63;;;6.11;80.36
29825;BME280;16713;52.916;12.834;2023-02-18T09:34:31;100672.69;;;5.95;81.33
29825;BME280;16713;52.916;12.834;2023-02-18T09:36:57;100669.66;;;5.88;81.79
29825;BME280;16713;52.916;12.834;2023-02-18T09:39:24;100666.13;;;5.87;82.10
29825;BME280;16713;52.916;12.834;2023-02-18T09:41:51;100647.28;;;5.74;82.64
29825;BME280;16713;52.916;12.834;2023-02-18T09:49:28;100633.88;;;6.06;83.06
29825;BME280;16713;52.916;12.834;2023-02-18T09:51:55;100633.69;;;6.20;82.33
29825;BME280;16713;52.916;12.834;2023-02-18T09:54:22;100625.69;;;6.15;82.51
29825;BME280;16713;52.916;12.834;2023-02-18T09:56:48;100618.25;;;6.41;81.40
29825;BME280;16713;52.916;12.834;2023-02-18T09:59:18;100598.16;;;6.08;82.52
29825;BME280;16713;52.916;12.834;2023-02-18T10:01:48;100605.66;;;6.19;82.50
29825;BME280;16713;52.916;12.834;2023-02-18T10:06:44;100587.97;;;5.96;82.57
29825;BME280;16713;52.916;12.834;2023-02-18T10:09:21;100568.59;;;5.98;82.55
29825;BME280;16713;52.916;12.834;2023-02-18T10:11:51;100559.06;;;6.12;82.73
29825;BME280;16713;52.916;12.834;2023-02-18T10:14:18;100556.56;;;6.07;82.80
29825;BME280;16713;52.916;12.834;2023-02-18T10:16:45;100554.91;;;6.15;82.22
29825;BME280;16713;52.916;12.834;2023-02-18T10:21:47;100542.69;;;5.92;83.06
29825;BME280;16713;52.916;12.834;2023-02-18T10:26:59;100527.63;;;5.94;83.80
29825;BME280;16713;52.916;12.834;2023-02-18T10:29:27;100527.31;;;5.96;83.66
29825;BME280;16713;52.916;12.834;2023-02-18T10:31:58;100532.56;;;6.30;82.88
29825;BME280;16713;52.916;12.834;2023-02-18T10:37:06;100522.75;;;6.08;83.41
29825;BME280;16713;52.916;12.834;2023-02-18T10:42:19;100504.06;;;5.98;83.07
29825;BME280;16713;52.916;12.834;2023-02-18T10:52:20;100492.75;;;6.17;83.99
29825;BME280;16713;52.916;12.834;2023-02-18T10:57:17;100472.28;;;6.11;84.09
29825;BME280;16713;52.916;12.834;2023-02-18T10:59:53;100490.09;;;6.08;84.42
29825;BME280;16713;52.916;12.834;2023-02-18T11:02:20;100484.78;;;6.41;83.03
29825;BME280;16713;52.916;12.834;2023-02-18T11:04:48;100484.63;;;6.38;83.44
29825;BME280;16713;52.916;12.834;2023-02-18T11:07:17;100475.38;;;6.30;84.00
29825;BME280;16713;52.916;12.834;2023-02-18T11:12:24;100466.63;;;5.95;84.52
29825;BME280;16713;52.916;12.834;2023-02-18T11:15:05;100453.28;;;6.02;84.74
29825;BME280;16713;52.916;12.834;2023-02-18T11:17:36;100450.16;;;6.12;84.41
29825;BME280;16713;52.916;12.834;2023-02-18T11:22:50;100428.66;;;6.19;84.78
29825;BME280;16713;52.916;12.834;2023-02-18T11:25:20;100415.53;;;6.42;84.34
29825;BME280;16713;52.916;12.834;2023-02-18T11:32:50;100384.34;;;6.52;83.48
29825;BME280;16713;52.916;12.834;2023-02-18T11:35:18;100368.84;;;6.32;84.35
29825;BME280;16713;52.916;12.834;2023-02-18T11:37:45;100367.06;;;6.27;83.98
29825;BME280;16713;52.916;12.834;2023-02-18T11:43:12;100328.16;;;6.47;84.44
29825;BME280;16713;52.916;12.834;2023-02-18T11:45:39;100342.59;;;6.60;83.87
29825;BME280;16713;52.916;12.834;2023-02-18T11:48:07;100338.16;;;6.55;83.61
29825;BME280;16713;52.916;12.834;2023-02-18T11:50:34;100330.00;;;6.55;83.96
29825;BME280;16713;52.916;12.834;2023-02-18T11:53:00;100320.13;;;6.51;83.54
29825;BME280;16713;52.916;12.834;2023-02-18T11:55:52;100294.47;;;6.52;84.08
29825;BME280;16713;52.916;12.834;2023-02-18T11:58:19;100279.94;;;6.60;83.82
29825;BME280;16713;52.916;12.834;2023-02-18T12:00:46;100262.56;;;6.64;83.92
29825;BME280;16713;52.916;12.834;2023-02-18T12:03:37;100288.00;;;6.56;83.57
29825;BME280;16713;52.916;12.834;2023-02-18T12:06:02;100275.28;;;6.60;83.46
29825;BME280;16713;52.916;12.834;2023-02-18T12:08:32;100253.81;;;6.47;84.23
29825;BME280;16713;52.916;12.834;2023-02-18T12:11:05;100239.41;;;6.70;84.61
29825;BME280;16713;52.916;12.834;2023-02-18T12:13:42;100243.41;;;6.73;83.66
29825;BME280;16713;52.916;12.834;2023-02-18T12:28:55;100211.16;;;6.75;84.20
29825;BME280;16713;52.916;12.834;2023-02-18T12:42:12;100171.53;;;6.89;84.68
29825;BME280;16713;52.916;12.834;2023-02-18T13:05:47;100140.69;;;7.13;84.35
29825;BME280;16713;52.916;12.834;2023-02-18T13:11:04;100124.56;;;7.08;86.06
29825;BME280;16713;52.916;12.834;2023-02-18T13:13:38;100114.28;;;6.05;80.66
29825;BME280;16713;52.916;12.834;2023-02-18T13:16:15;100112.22;;;6.86;85.46
29825;BME280;16713;52.916;12.834;2023-02-18T13:19:02;100113.31;;;7.09;86.43
29825;BME280;16713;52.916;12.834;2023-02-18T13:21:32;100110.97;;;7.23;87.42
29825;BME280;16713;52.916;12.834;2023-02-18T13:26:55;100118.91;;;7.56;85.99
29825;BME280;16713;52.916;12.834;2023-02-18T13:29:31;100102.50;;;7.40;88.10
29825;BME280;16713;52.916;12.834;2023-02-18T13:34:38;100090.91;;;7.43;87.87
29825;BME280;16713;52.916;12.834;2023-02-18T13:37:15;100088.09;;;7.55;87.91
29825;BME280;16713;52.916;12.834;2023-02-18T13:39:47;100079.50;;;7.69;87.89
29825;BME280;16713;52.916;12.834;2023-02-18T13:47:39;100072.06;;;7.97;93.11
29825;BME280;16713;52.916;12.834;2023-02-18T13:50:40;100076.91;;;8.04;93.87
29825;BME280;16713;52.916;12.834;2023-02-18T13:53:21;100068.53;;;7.97;94.21
29825;BME280;16713;52.916;12.834;2023-02-18T13:55:50;100080.34;;;8.16;94.01
29825;BME280;16713;52.916;12.834;2023-02-18T13:58:18;100059.28;;;8.17;94.37
29825;BME280;16713;52.916;12.834;2023-02-18T14:00:50;100065.94;;;8.35;94.37
29825;BME280;16713;52.916;12.834;2023-02-18T14:03:27;100050.72;;;8.34;93.24
29825;BME280;16713;52.916;12.834;2023-02-18T14:05:56;100056.31;;;8.41;93.41
29825;BME280;16713;52.916;12.834;2023-02-18T14:08:35;100056.25;;;8.37;94.31
29825;BME280;16713;52.916;12.834;2023-02-18T14:13:41;100061.69;;;8.37;93.04
29825;BME280;16713;52.916;12.834;2023-02-18T14:16:08;100071.28;;;8.47;93.24
29825;BME280;16713;52.916;12.834;2023-02-18T14:28:53;100133.38;;;8.46;90.20
29825;BME280;16713;52.916;12.834;2023-02-18T14:34:17;100143.31;;;8.39;87.69
29825;BME280;16713;52.916;12.834;2023-02-18T14:41:54;100155.41;;;8.22;86.68
29825;BME280;16713;52.916;12.834;2023-02-18T14:50:17;100157.50;;;8.13;86.26
29825;BME280;16713;52.916;12.834;2023-02-18T14:52:18;100160.69;;;8.15;85.49
29825;BME280;16713;52.916;12.834;2023-02-18T14:54:55;100165.59;;;7.94;86.91
29825;BME280;16713;52.916;12.834;2023-02-18T14:57:26;100173.13;;;8.13;86.96
29825;BME280;16713;52.916;12.834;2023-02-18T14:59:57;100174.78;;;8.17;86.34
29825;BME280;16713;52.916;12.834;2023-02-18T15:02:25;100174.50;;;8.07;85.43
29825;BME280;16713;52.916;12.834;2023-02-18T15:05:10;100184.47;;;8.15;86.27
29825;BME280;16713;52.916;12.834;2023-02-18T15:07:38;100198.91;;;8.00;85.76
29825;BME280;16713;52.916;12.834;2023-02-18T15:10:04;100195.03;;;8.01;85.31
29825;BME280;16713;52.916;12.834;2023-02-18T15:12:38;100200.22;;;8.06;84.48
29825;BME280;16713;52.916;12.834;2023-02-18T15:15:04;100214.69;;;8.06;85.13
29825;BME280;16713;52.916;12.834;2023-02-18T15:17:31;100210.00;;;8.07;85.79
29825;BME280;16713;52.916;12.834;2023-02-18T15:19:59;100213.09;;;7.77;85.20
29825;BME280;16713;52.916;12.834;2023-02-18T15:22:30;100223.31;;;7.81;85.15
29825;BME280;16713;52.916;12.834;2023-02-18T15:24:59;100235.81;;;7.94;85.59
29825;BME280;16713;52.916;12.834;2023-02-18T15:27:27;100250.06;;;7.87;84.87
29825;BME280;16713;52.916;12.834;2023-02-18T15:30:14;100246.53;;;7.87;85.55
29825;BME280;16713;52.916;12.834;2023-02-18T15:32:49;100256.56;;;7.70;84.99
29825;BME280;16713;52.916;12.834;2023-02-18T15:35:17;100268.88;;;7.64;84.71
29825;BME280;16713;52.916;12.834;2023-02-18T15:37:44;100267.06;;;7.56;85.02
29825;BME280;16713;52.916;12.834;2023-02-18T15:40:14;100273.81;;;7.74;84.83